createdAt,value
2022-08-12T00:00:18.501Z,2.33
2022-08-12T00:06:00.485Z,2.55
2022-08-12T00:11:20.698Z,1.92
2022-08-12T00:16:40.873Z,2.17
2022-08-12T00:22:01.760Z,2.20
2022-08-12T00:27:25.118Z,2.33
2022-08-12T00:32:54.783Z,2.47
2022-08-12T00:38:21.136Z,2.90
2022-08-12T00:43:24.673Z,2.15
2022-08-12T00:48:26.728Z,2.60
2022-08-12T00:53:29.618Z,2.70
2022-08-12T00:58:32.457Z,2.83
2022-08-12T01:03:56.127Z,2.75
2022-08-12T01:09:19.866Z,2.85
2022-08-12T01:14:25.998Z,2.80
2022-08-12T01:19:27.777Z,2.38
2022-08-12T01:24:31.170Z,2.63
2022-08-12T01:29:36.495Z,2.78
2022-08-12T01:34:41.360Z,2.67
2022-08-12T01:40:34.587Z,2.80
2022-08-12T01:45:10.433Z,2.63
2022-08-12T01:50:33.403Z,3.00
2022-08-12T01:55:38.366Z,2.60
2022-08-12T02:00:54.835Z,2.60
2022-08-12T02:06:25.030Z,3.05
2022-08-12T02:11:30.476Z,2.78
2022-08-12T02:17:13.275Z,2.80
2022-08-12T02:22:17.669Z,2.70
2022-08-12T02:27:21.664Z,2.50
2022-08-12T02:32:23.465Z,2.70
2022-08-12T02:37:28.339Z,2.80
2022-08-12T02:42:34.113Z,2.70
2022-08-12T02:48:00.934Z,2.85
2022-08-12T02:53:04.479Z,2.42
2022-08-12T02:58:12.387Z,2.65
2022-08-12T03:03:19.429Z,2.47
2022-08-12T03:08:32.690Z,3.20
2022-08-12T03:13:40.294Z,2.60
2022-08-12T03:18:46.049Z,3.00
2022-08-12T03:23:49.195Z,2.70
2022-08-12T03:28:51.902Z,3.17
2022-08-12T03:34:01.241Z,3.10
2022-08-12T03:39:16.001Z,3.05
2022-08-12T03:44:45.970Z,3.17
2022-08-12T03:50:06.783Z,3.67
2022-08-12T03:55:27.109Z,3.55
2022-08-12T04:00:30.897Z,3.38
2022-08-12T04:05:54.687Z,3.33
2022-08-12T04:11:13.904Z,3.90
2022-08-12T04:16:17.328Z,2.85
2022-08-12T04:21:19.462Z,3.40
2022-08-12T04:26:21.466Z,3.30
2022-08-12T04:31:34.423Z,3.10
2022-08-12T04:36:40.558Z,3.40
2022-08-12T04:41:57.513Z,3.50
2022-08-12T04:47:00.534Z,2.58
2022-08-12T04:52:03.316Z,3.40
2022-08-12T04:57:06.105Z,3.30
2022-08-12T05:02:09.545Z,3.22
2022-08-12T05:07:18.614Z,3.20
2022-08-12T05:12:20.353Z,2.92
2022-08-12T05:17:22.023Z,3.03
2022-08-12T05:22:28.917Z,3.22
2022-08-12T05:27:30.579Z,2.30
2022-08-12T05:32:32.830Z,2.65
2022-08-12T05:37:35.137Z,3.13
2022-08-12T05:42:36.879Z,2.88
2022-08-12T05:47:53.311Z,2.80
2022-08-12T05:52:55.540Z,3.33
2022-08-12T05:57:57.692Z,2.53
2022-08-12T06:03:03.191Z,2.75
2022-08-12T06:08:07.129Z,2.42
2022-08-12T06:13:09.340Z,2.45
2022-08-12T06:18:16.295Z,2.35
2022-08-12T06:23:18.184Z,3.00
2022-08-12T06:28:21.268Z,2.75
2022-08-12T06:33:24.999Z,3.30
2022-08-12T06:38:46.284Z,4.07
2022-08-12T06:44:06.721Z,3.70
2022-08-12T06:49:13.370Z,7.82
2022-08-12T06:54:15.160Z,3.75
2022-08-12T06:59:35.651Z,3.25
2022-08-12T07:04:39.215Z,2.78
2022-08-12T07:10:06.762Z,2.90
2022-08-12T07:15:07.647Z,2.97
2022-08-12T07:20:29.790Z,2.65
2022-08-12T07:25:37.922Z,2.45
2022-08-12T07:30:45.776Z,2.97
2022-08-12T07:35:48.619Z,2.20
2022-08-12T07:40:53.713Z,2.63
2022-08-12T07:45:55.781Z,1.95
2022-08-12T07:50:57.438Z,2.15
2022-08-12T07:55:59.218Z,2.42
2022-08-12T08:01:02.375Z,2.38
2022-08-12T08:06:19.928Z,2.20
2022-08-12T08:11:42.263Z,2.28
2022-08-12T08:16:43.992Z,2.03
2022-08-12T08:21:46.553Z,2.28
2022-08-12T08:26:50.484Z,2.50
2022-08-12T08:31:58.900Z,1.42
2022-08-12T08:37:00.580Z,1.63
2022-08-12T08:42:25.118Z,1.42
2022-08-12T08:47:26.790Z,2.13
2022-08-12T08:52:39.094Z,6.28
2022-08-12T08:57:51.130Z,1.85
2022-08-12T09:02:59.044Z,3.22
2022-08-12T09:08:14.345Z,1.70
2022-08-12T09:14:10.746Z,1.40
2022-08-12T09:18:53.731Z,1.77
2022-08-12T09:24:06.047Z,1.10
2022-08-12T09:29:12.054Z,1.60
2022-08-12T09:34:27.532Z,2.00
2022-08-12T09:40:02.175Z,1.55
2022-08-12T09:46:06.219Z,1.20
2022-08-12T09:50:58.673Z,1.13
2022-08-12T09:56:41.182Z,1.30
2022-08-12T10:01:25.705Z,1.40
2022-08-12T10:06:53.909Z,1.40
2022-08-12T10:12:15.945Z,1.30
2022-08-12T10:17:32.967Z,1.33
2022-08-12T10:22:39.566Z,1.45
2022-08-12T10:28:03.467Z,1.67
2022-08-12T10:33:18.165Z,1.48
2022-08-12T10:38:39.345Z,1.30
2022-08-12T10:43:54.864Z,1.52
2022-08-12T10:49:05.564Z,3.60
2022-08-12T10:54:19.787Z,2.15
2022-08-12T11:00:31.445Z,1.65
2022-08-12T11:04:59.035Z,1.20
2022-08-12T11:10:20.246Z,1.10
2022-08-12T11:16:03.023Z,4.80
2022-08-12T11:20:52.188Z,1.00
2022-08-12T11:25:58.080Z,1.75
2022-08-12T11:31:00.804Z,1.55
2022-08-12T11:36:16.729Z,1.40
2022-08-12T11:41:27.985Z,1.33
2022-08-12T11:46:37.454Z,1.30
2022-08-12T11:51:39.935Z,1.23
2022-08-12T11:56:42.907Z,1.10
2022-08-12T12:02:03.067Z,1.13
2022-08-12T12:07:11.181Z,1.45
2022-08-12T12:12:13.233Z,1.52
2022-08-12T12:17:14.890Z,1.27
2022-08-12T12:22:23.198Z,1.60
2022-08-12T12:27:42.273Z,1.85
2022-08-12T12:32:53.470Z,1.35
2022-08-12T12:38:12.175Z,1.33
2022-08-12T12:43:15.046Z,1.33
2022-08-12T12:48:18.717Z,1.42
2022-08-12T12:54:06.868Z,1.40
2022-08-12T12:58:44.560Z,1.63
2022-08-12T13:03:48.859Z,1.40
2022-08-12T13:08:55.528Z,1.73
2022-08-12T13:14:06.799Z,1.40
2022-08-12T13:19:10.346Z,1.58
2022-08-12T13:24:12.154Z,1.60
2022-08-12T13:29:14.309Z,1.38
2022-08-12T13:34:33.947Z,1.33
2022-08-12T13:39:39.180Z,1.10
2022-08-12T13:44:41.062Z,1.67
2022-08-12T13:49:55.417Z,1.20
2022-08-12T13:54:57.759Z,1.27
2022-08-12T14:00:00.426Z,1.20
2022-08-12T14:05:02.333Z,1.20
2022-08-12T14:10:36.539Z,1.70
2022-08-12T14:15:41.397Z,1.13
2022-08-12T14:20:47.611Z,1.25
2022-08-12T14:25:51.395Z,1.48
2022-08-12T14:31:02.496Z,1.33
2022-08-12T14:36:07.655Z,1.00
2022-08-12T14:41:12.429Z,1.40
2022-08-12T14:46:19.112Z,1.40
2022-08-12T14:52:56.544Z,1.27
2022-08-12T15:02:07.264Z,1.25
2022-08-12T15:07:34.453Z,1.38
2022-08-12T15:12:35.573Z,1.27
2022-08-12T15:17:42.345Z,1.40
2022-08-12T15:22:53.881Z,1.20
2022-08-12T15:28:04.089Z,1.30
2022-08-12T15:33:14.963Z,1.52
2022-08-12T15:38:25.192Z,1.30
2022-08-12T15:44:15.823Z,1.40
2022-08-12T15:48:53.619Z,1.27
2022-08-12T15:54:33.400Z,1.20
2022-08-12T15:59:32.622Z,1.77
2022-08-12T16:04:51.517Z,1.00
2022-08-12T16:10:06.378Z,1.33
2022-08-12T16:15:11.193Z,1.15
2022-08-12T16:20:33.065Z,1.30
2022-08-12T16:26:02.974Z,1.45
2022-08-12T16:31:00.360Z,1.80
2022-08-12T16:36:06.161Z,1.35
2022-08-12T16:41:13.538Z,1.50
2022-08-12T16:46:32.238Z,1.40
2022-08-12T16:51:40.373Z,1.25
2022-08-12T16:56:55.554Z,1.15
2022-08-12T17:02:00.500Z,1.42
2022-08-12T17:07:02.561Z,1.67
2022-08-12T17:12:05.108Z,1.40
2022-08-12T17:17:18.359Z,1.20
2022-08-12T17:22:30.420Z,1.23
2022-08-12T17:27:34.182Z,1.25
2022-08-12T17:32:39.729Z,1.40
2022-08-12T17:37:43.043Z,1.10
2022-08-12T17:42:47.499Z,1.30
2022-08-12T17:48:04.794Z,1.20
2022-08-12T17:53:10.154Z,1.20
2022-08-12T17:58:14.060Z,1.42
2022-08-12T18:04:05.537Z,1.35
2022-08-12T18:08:55.120Z,1.40
2022-08-12T18:13:57.077Z,2.20
2022-08-12T18:19:02.041Z,1.85
2022-08-12T18:24:04.597Z,1.40
2022-08-12T18:29:27.227Z,1.67
2022-08-12T18:34:45.332Z,1.33
2022-08-12T18:40:18.064Z,2.00
2022-08-12T18:45:21.885Z,1.52
2022-08-12T18:50:24.607Z,1.45
2022-08-12T18:55:27.097Z,1.52
2022-08-12T19:00:40.451Z,1.55
2022-08-12T19:05:53.902Z,1.20
2022-08-12T19:11:16.183Z,1.50
2022-08-12T19:16:21.497Z,1.45
2022-08-12T19:21:24.710Z,1.23
2022-08-12T19:26:27.895Z,1.58
2022-08-12T19:31:56.472Z,1.80
2022-08-12T19:37:04.288Z,2.08
2022-08-12T19:42:06.661Z,2.13
2022-08-12T19:47:12.024Z,1.98
2022-08-12T19:52:21.023Z,2.05
2022-08-12T19:57:25.865Z,2.40
2022-08-12T20:02:32.977Z,2.28
2022-08-12T20:07:42.839Z,2.13
2022-08-12T20:13:18.312Z,1.83
2022-08-12T20:18:53.267Z,1.58
2022-08-12T20:24:00.468Z,1.90
2022-08-12T20:29:06.553Z,2.13
2022-08-12T20:34:08.589Z,2.10
2022-08-12T20:39:34.402Z,2.72
2022-08-12T20:44:37.728Z,1.58
2022-08-12T20:49:43.907Z,2.92
2022-08-12T20:54:52.569Z,1.90
2022-08-12T20:59:54.230Z,2.45
2022-08-12T21:05:20.335Z,2.17
2022-08-12T21:10:26.542Z,2.85
2022-08-12T21:15:30.788Z,2.83
2022-08-12T21:20:52.965Z,2.67
2022-08-12T21:25:56.227Z,2.28
2022-08-12T21:32:35.917Z,2.75
2022-08-12T21:36:22.733Z,2.47
2022-08-12T21:41:37.823Z,2.22
2022-08-12T21:46:53.585Z,2.47
2022-08-12T21:51:56.538Z,2.97
2022-08-12T21:56:58.934Z,2.97
2022-08-12T22:02:00.609Z,2.90
2022-08-12T22:07:02.634Z,3.33
2022-08-12T22:12:23.367Z,2.75
2022-08-12T22:17:49.583Z,2.72
2022-08-12T22:22:56.701Z,2.78
2022-08-12T22:28:17.306Z,2.50
2022-08-12T22:33:26.398Z,2.67
2022-08-12T22:38:29.797Z,2.65
2022-08-12T22:44:00.493Z,2.40
2022-08-12T22:49:03.538Z,2.67
2022-08-12T22:54:35.011Z,2.95
2022-08-12T22:59:51.163Z,2.85
2022-08-12T23:04:52.535Z,3.17
2022-08-12T23:09:56.902Z,3.28
2022-08-12T23:14:58.547Z,3.53
2022-08-12T23:20:01.699Z,2.58
2022-08-12T23:25:03.614Z,2.85
2022-08-12T23:30:18.740Z,3.60
2022-08-12T23:35:22.683Z,3.17
2022-08-12T23:40:25.574Z,2.67
2022-08-12T23:45:31.988Z,3.30
2022-08-12T23:50:35.812Z,2.83
2022-08-12T23:55:40.596Z,2.95
